sensor_id;sensor_type;location;lat;lon;timestamp;pressure;altitude;pressure_sealevel;temperature;humidity
64192;BME280;50497;50.720;-2.084;2023-04-27T00:02:31;102800.38;;;10.03;100.00
64192;BME280;50497;50.720;-2.084;2023-04-27T00:05:00;102804.75;;;10.07;100.00
64192;BME280;50497;50.720;-2.084;2023-04-27T00:07:36;102794.06;;;10.07;100.00
64192;BME280;50497;50.720;-2.084;2023-04-27T00:10:06;102798.50;;;10.10;100.00
64192;BME280;50497;50.720;-2.084;2023-04-27T00:12:36;102757.53;;;10.08;100.00
64192;BME280;50497;50.720;-2.084;2023-04-27T00:15:09;102734.47;;;9.96;100.00
64192;BME280;50497;50.720;-2.084;2023-04-27T00:17:42;102712.13;;;10.03;100.00
64192;BME280;50497;50.720;-2.084;2023-04-27T00:20:14;102663.34;;;9.83;100.00
64192;BME280;50497;50.720;-2.084;2023-04-27T00:22:46;102656.03;;;9.97;100.00
64192;BME280;50497;50.720;-2.084;2023-04-27T00:25:18;102639.88;;;10.06;100.00
64192;BME280;50497;50.720;-2.084;2023-04-27T00:27:53;102600.84;;;9.93;100.00
64192;BME280;50497;50.720;-2.084;2023-04-27T00:30:21;102594.41;;;10.05;100.00
64192;BME280;50497;50.720;-2.084;2023-04-27T00:32:58;102568.56;;;10.05;100.00
64192;BME280;50497;50.720;-2.084;2023-04-27T00:35:26;102534.69;;;10.04;100.00
64192;BME280;50497;50.720;-2.084;2023-04-27T00:37:59;102529.28;;;10.07;100.00
64192;BME280;50497;50.720;-2.084;2023-04-27T00:40:34;102523.84;;;10.13;100.00
64192;BME280;50497;50.720;-2.084;2023-04-27T00:43:13;102502.44;;;10.13;100.00
64192;BME280;50497;50.720;-2.084;2023-04-27T00:45:42;102489.13;;;10.10;100.00
64192;BME280;50497;50.720;-2.084;2023-04-27T00:48:16;102470.41;;;10.10;100.00
64192;BME280;50497;50.720;-2.084;2023-04-27T00:50:48;102464.97;;;10.16;100.00
64192;BME280;50497;50.720;-2.084;2023-04-27T00:53:25;102448.19;;;10.07;100.00
64192;BME280;50497;50.720;-2.084;2023-04-27T00:56:04;102446.31;;;10.12;100.00
64192;BME280;50497;50.720;-2.084;2023-04-27T00:58:34;102464.09;;;10.16;100.00
64192;BME280;50497;50.720;-2.084;2023-04-27T01:01:09;102452.44;;;10.18;100.00
64192;BME280;50497;50.720;-2.084;2023-04-27T01:03:36;102463.22;;;10.12;100.00
64192;BME280;50497;50.720;-2.084;2023-04-27T01:06:05;102466.59;;;10.24;100.00
64192;BME280;50497;50.720;-2.084;2023-04-27T01:08:37;102477.41;;;10.17;100.00
64192;BME280;50497;50.720;-2.084;2023-04-27T01:11:09;102472.91;;;10.21;100.00
64192;BME280;50497;50.720;-2.084;2023-04-27T01:13:38;102469.22;;;10.27;100.00
64192;BME280;50497;50.720;-2.084;2023-04-27T01:16:11;102472.00;;;10.21;100.00
64192;BME280;50497;50.720;-2.084;2023-04-27T01:18:40;102462.97;;;10.28;100.00
64192;BME280;50497;50.720;-2.084;2023-04-27T01:21:09;102426.63;;;10.16;100.00
64192;BME280;50497;50.720;-2.084;2023-04-27T01:23:43;102458.44;;;10.33;100.00
64192;BME280;50497;50.720;-2.084;2023-04-27T01:26:15;102460.19;;;10.34;100.00
64192;BME280;50497;50.720;-2.084;2023-04-27T01:28:49;102459.28;;;10.35;100.00
64192;BME280;50497;50.720;-2.084;2023-04-27T01:31:17;102445.97;;;10.30;100.00
64192;BME280;50497;50.720;-2.084;2023-04-27T01:33:46;102430.78;;;10.31;100.00
64192;BME280;50497;50.720;-2.084;2023-04-27T01:36:12;102419.16;;;10.35;100.00
64192;BME280;50497;50.720;-2.084;2023-04-27T01:38:48;102397.78;;;10.33;100.00
64192;BME280;50497;50.720;-2.084;2023-04-27T01:41:21;102411.88;;;10.43;100.00
64192;BME280;50497;50.720;-2.084;2023-04-27T01:43:55;102378.13;;;10.36;100.00
64192;BME280;50497;50.720;-2.084;2023-04-27T01:46:23;102400.13;;;10.49;100.00
64192;BME280;50497;50.720;-2.084;2023-04-27T01:48:59;102379.81;;;10.40;100.00
64192;BME280;50497;50.720;-2.084;2023-04-27T01:51:30;102373.50;;;10.44;100.00
64192;BME280;50497;50.720;-2.084;2023-04-27T01:53:57;102373.28;;;10.53;100.00
64192;BME280;50497;50.720;-2.084;2023-04-27T01:56:31;102353.84;;;10.45;100.00
64192;BME280;50497;50.720;-2.084;2023-04-27T01:58:56;102355.63;;;10.45;100.00
64192;BME280;50497;50.720;-2.084;2023-04-27T02:01:33;102349.34;;;10.46;100.00
64192;BME280;50497;50.720;-2.084;2023-04-27T02:04:03;102337.66;;;10.51;100.00
64192;BME280;50497;50.720;-2.084;2023-04-27T02:06:35;102319.09;;;10.44;100.00
64192;BME280;50497;50.720;-2.084;2023-04-27T02:09:10;102313.66;;;10.47;100.00
64192;BME280;50497;50.720;-2.084;2023-04-27T02:11:40;102264.09;;;10.27;100.00
64192;BME280;50497;50.720;-2.084;2023-04-27T02:14:18;102281.59;;;10.45;100.00
64192;BME280;50497;50.720;-2.084;2023-04-27T02:16:48;102263.81;;;10.43;100.00
64192;BME280;50497;50.720;-2.084;2023-04-27T02:19:23;102251.25;;;10.46;100.00
64192;BME280;50497;50.720;-2.084;2023-04-27T02:21:53;102233.25;;;10.53;100.00
64192;BME280;50497;50.720;-2.084;2023-04-27T02:24:25;102215.13;;;10.25;100.00
64192;BME280;50497;50.720;-2.084;2023-04-27T02:27:00;102253.88;;;10.49;100.00
64192;BME280;50497;50.720;-2.084;2023-04-27T02:29:36;102259.28;;;10.46;100.00
64192;BME280;50497;50.720;-2.084;2023-04-27T02:32:10;102223.84;;;10.35;100.00
64192;BME280;50497;50.720;-2.084;2023-04-27T02:34:41;102246.59;;;10.54;100.00
64192;BME280;50497;50.720;-2.084;2023-04-27T02:37:12;102267.31;;;10.46;100.00
64192;BME280;50497;50.720;-2.084;2023-04-27T02:39:45;102283.38;;;10.46;100.00
64192;BME280;50497;50.720;-2.084;2023-04-27T02:42:17;102292.34;;;10.42;100.00
64192;BME280;50497;50.720;-2.084;2023-04-27T02:44:47;102293.28;;;10.41;100.00
64192;BME280;50497;50.720;-2.084;2023-04-27T02:47:22;102321.78;;;10.42;100.00
64192;BME280;50497;50.720;-2.084;2023-04-27T02:49:54;102345.88;;;10.42;100.00
64192;BME280;50497;50.720;-2.084;2023-04-27T02:52:27;102357.28;;;10.50;100.00
64192;BME280;50497;50.720;-2.084;2023-04-27T02:55:00;102396.63;;;10.47;100.00
64192;BME280;50497;50.720;-2.084;2023-04-27T02:57:27;102428.88;;;10.39;100.00
64192;BME280;50497;50.720;-2.084;2023-04-27T02:59:56;102447.72;;;10.34;100.00
64192;BME280;50497;50.720;-2.084;2023-04-27T03:02:25;102464.47;;;10.44;100.00
64192;BME280;50497;50.720;-2.084;2023-04-27T03:04:57;102483.31;;;10.38;100.00
64192;BME280;50497;50.720;-2.084;2023-04-27T03:07:39;102487.91;;;10.30;100.00
64192;BME280;50497;50.720;-2.084;2023-04-27T03:10:09;102496.81;;;10.32;100.00
64192;BME280;50497;50.720;-2.084;2023-04-27T03:12:41;102513.00;;;10.23;100.00
64192;BME280;50497;50.720;-2.084;2023-04-27T03:15:16;102511.03;;;10.34;100.00
64192;BME280;50497;50.720;-2.084;2023-04-27T03:17:47;102513.69;;;10.35;100.00
64192;BME280;50497;50.720;-2.084;2023-04-27T03:20:20;102518.06;;;10.40;100.00
64192;BME280;50497;50.720;-2.084;2023-04-27T03:22:49;102527.84;;;10.41;100.00
64192;BME280;50497;50.720;-2.084;2023-04-27T03:25:20;102517.31;;;10.31;100.00
64192;BME280;50497;50.720;-2.084;2023-04-27T03:28:06;102502.06;;;10.38;100.00
64192;BME280;50497;50.720;-2.084;2023-04-27T03:30:32;102475.41;;;10.29;100.00
64192;BME280;50497;50.720;-2.084;2023-04-27T03:33:02;102442.41;;;10.33;100.00
64192;BME280;50497;50.720;-2.084;2023-04-27T03:35:32;102404.88;;;10.36;100.00
64192;BME280;50497;50.720;-2.084;2023-04-27T03:38:02;102388.66;;;10.44;100.00
64192;BME280;50497;50.720;-2.084;2023-04-27T03:40:27;102344.38;;;10.26;100.00
64192;BME280;50497;50.720;-2.084;2023-04-27T03:43:03;102291.03;;;10.20;100.00
64192;BME280;50497;50.720;-2.084;2023-04-27T03:45:36;102280.81;;;10.40;100.00
64192;BME280;50497;50.720;-2.084;2023-04-27T03:48:08;102246.03;;;10.40;100.00
64192;BME280;50497;50.720;-2.084;2023-04-27T03:50:48;102215.47;;;10.50;100.00
64192;BME280;50497;50.720;-2.084;2023-04-27T03:53:19;102219.25;;;10.42;100.00
64192;BME280;50497;50.720;-2.084;2023-04-27T03:55:52;102177.16;;;10.48;100.00
64192;BME280;50497;50.720;-2.084;2023-04-27T03:58:20;102150.41;;;10.48;100.00
64192;BME280;50497;50.720;-2.084;2023-04-27T04:00:51;102137.06;;;10.47;100.00
64192;BME280;50497;50.720;-2.084;2023-04-27T04:03:25;102107.72;;;10.42;100.00
64192;BME280;50497;50.720;-2.084;2023-04-27T04:05:56;102103.16;;;10.47;100.00
64192;BME280;50497;50.720;-2.084;2023-04-27T04:08:24;102065.59;;;10.50;100.00
64192;BME280;50497;50.720;-2.084;2023-04-27T04:10:55;102010.03;;;10.26;100.00
64192;BME280;50497;50.720;-2.084;2023-04-27T04:13:30;101972.63;;;10.24;100.00
64192;BME280;50497;50.720;-2.084;2023-04-27T04:16:03;101996.16;;;10.46;100.00
64192;BME280;50497;50.720;-2.084;2023-04-27T04:18:32;101980.88;;;10.51;100.00
64192;BME280;50497;50.720;-2.084;2023-04-27T04:21:04;101973.59;;;10.56;100.00
64192;BME280;50497;50.720;-2.084;2023-04-27T04:23:30;101976.59;;;10.44;100.00
64192;BME280;50497;50.720;-2.084;2023-04-27T04:26:04;101966.44;;;10.57;100.00
64192;BME280;50497;50.720;-2.084;2023-04-27T04:28:30;101966.41;;;10.58;100.00
64192;BME280;50497;50.720;-2.084;2023-04-27T04:30:56;101958.53;;;10.52;100.00
64192;BME280;50497;50.720;-2.084;2023-04-27T04:33:23;101930.91;;;10.51;100.00
64192;BME280;50497;50.720;-2.084;2023-04-27T04:35:54;101931.69;;;10.55;100.00
64192;BME280;50497;50.720;-2.084;2023-04-27T04:38:24;101927.44;;;10.48;100.00
64192;BME280;50497;50.720;-2.084;2023-04-27T04:40:50;101930.13;;;10.48;100.00
64192;BME280;50497;50.720;-2.084;2023-04-27T04:43:19;101921.84;;;10.56;100.00
64192;BME280;50497;50.720;-2.084;2023-04-27T04:45:48;101926.53;;;10.47;100.00
64192;BME280;50497;50.720;-2.084;2023-04-27T04:48:20;101926.41;;;10.52;100.00
64192;BME280;50497;50.720;-2.084;2023-04-27T04:50:49;101915.69;;;10.53;100.00
64192;BME280;50497;50.720;-2.084;2023-04-27T04:53:19;101921.13;;;10.50;100.00
64192;BME280;50497;50.720;-2.084;2023-04-27T04:55:45;101916.66;;;10.51;100.00
64192;BME280;50497;50.720;-2.084;2023-04-27T04:58:10;101904.28;;;10.47;100.00
64192;BME280;50497;50.720;-2.084;2023-04-27T05:00:44;101910.31;;;10.53;100.00
64192;BME280;50497;50.720;-2.084;2023-04-27T05:03:15;101907.56;;;10.57;100.00
64192;BME280;50497;50.720;-2.084;2023-04-27T05:05:41;101876.00;;;10.38;100.00
64192;BME280;50497;50.720;-2.084;2023-04-27T05:08:06;101864.31;;;10.41;100.00
64192;BME280;50497;50.720;-2.084;2023-04-27T05:10:32;101899.66;;;10.52;100.00
64192;BME280;50497;50.720;-2.084;2023-04-27T05:13:01;101908.47;;;10.56;100.00
64192;BME280;50497;50.720;-2.084;2023-04-27T05:15:29;101910.19;;;10.58;100.00
64192;BME280;50497;50.720;-2.084;2023-04-27T05:17:59;101905.72;;;10.59;100.00
64192;BME280;50497;50.720;-2.084;2023-04-27T05:20:25;101898.75;;;10.53;100.00
64192;BME280;50497;50.720;-2.084;2023-04-27T05:22:54;101893.38;;;10.54;100.00
64192;BME280;50497;50.720;-2.084;2023-04-27T05:25:23;101878.16;;;10.55;100.00
64192;BME280;50497;50.720;-2.084;2023-04-27T05:27:49;101862.38;;;10.46;100.00
64192;BME280;50497;50.720;-2.084;2023-04-27T05:30:19;101855.84;;;10.56;100.00
64192;BME280;50497;50.720;-2.084;2023-04-27T05:32:44;101864.66;;;10.60;100.00
64192;BME280;50497;50.720;-2.084;2023-04-27T05:35:14;101855.00;;;10.54;100.00
64192;BME280;50497;50.720;-2.084;2023-04-27T05:37:41;101842.38;;;10.59;100.00
64192;BME280;50497;50.720;-2.084;2023-04-27T05:40:11;101802.81;;;10.39;100.00
64192;BME280;50497;50.720;-2.084;2023-04-27T05:42:40;101842.47;;;10.56;100.00
64192;BME280;50497;50.720;-2.084;2023-04-27T05:45:11;101831.59;;;10.61;100.00
64192;BME280;50497;50.720;-2.084;2023-04-27T05:47:37;101833.47;;;10.59;100.00
64192;BME280;50497;50.720;-2.084;2023-04-27T05:50:03;101840.56;;;10.60;100.00
64192;BME280;50497;50.720;-2.084;2023-04-27T05:52:36;101841.63;;;10.54;100.00
64192;BME280;50497;50.720;-2.084;2023-04-27T05:55:08;101843.44;;;10.53;100.00
64192;BME280;50497;50.720;-2.084;2023-04-27T05:57:42;101829.13;;;10.54;100.00
64192;BME280;50497;50.720;-2.084;2023-04-27T06:00:12;101840.63;;;10.58;100.00
64192;BME280;50497;50.720;-2.084;2023-04-27T06:02:42;101842.56;;;10.53;100.00
64192;BME280;50497;50.720;-2.084;2023-04-27T06:05:07;101855.00;;;10.54;100.00
64192;BME280;50497;50.720;-2.084;2023-04-27T06:07:38;101859.44;;;10.55;100.00
64192;BME280;50497;50.720;-2.084;2023-04-27T06:10:14;101863.84;;;10.58;100.00
64192;BME280;50497;50.720;-2.084;2023-04-27T06:12:40;101865.66;;;10.56;100.00
64192;BME280;50497;50.720;-2.084;2023-04-27T06:15:10;101872.59;;;10.63;100.00
64192;BME280;50497;50.720;-2.084;2023-04-27T06:17:37;101869.63;;;10.72;100.00
64192;BME280;50497;50.720;-2.084;2023-04-27T06:20:09;101865.28;;;10.69;100.00
64192;BME280;50497;50.720;-2.084;2023-04-27T06:22:38;101869.50;;;10.77;100.00
64192;BME280;50497;50.720;-2.084;2023-04-27T06:25:08;101871.22;;;10.79;100.00
64192;BME280;50497;50.720;-2.084;2023-04-27T06:27:42;101889.13;;;10.77;100.00
64192;BME280;50497;50.720;-2.084;2023-04-27T06:30:08;101891.78;;;10.77;100.00
64192;BME280;50497;50.720;-2.084;2023-04-27T06:32:43;101908.72;;;10.79;100.00
64192;BME280;50497;50.720;-2.084;2023-04-27T06:35:09;101915.72;;;10.83;100.00
64192;BME280;50497;50.720;-2.084;2023-04-27T06:37:35;101900.13;;;10.68;100.00
64192;BME280;50497;50.720;-2.084;2023-04-27T06:40:05;101881.19;;;10.44;100.00
64192;BME280;50497;50.720;-2.084;2023-04-27T06:42:49;101907.56;;;10.57;100.00
64192;BME280;50497;50.720;-2.084;2023-04-27T06:45:19;101933.47;;;10.87;100.00
64192;BME280;50497;50.720;-2.084;2023-04-27T06:47:54;101940.84;;;10.79;100.00
64192;BME280;50497;50.720;-2.084;2023-04-27T06:50:19;101938.91;;;10.84;100.00
64192;BME280;50497;50.720;-2.084;2023-04-27T06:52:45;101951.00;;;10.98;100.00
64192;BME280;50497;50.720;-2.084;2023-04-27T06:55:11;101938.38;;;11.01;100.00
64192;BME280;50497;50.720;-2.084;2023-04-27T06:57:44;101980.91;;;11.12;100.00
64192;BME280;50497;50.720;-2.084;2023-04-27T07:00:18;101996.84;;;11.17;100.00
64192;BME280;50497;50.720;-2.084;2023-04-27T07:02:44;102008.75;;;11.06;100.00
64192;BME280;50497;50.720;-2.084;2023-04-27T07:05:15;102009.94;;;11.27;100.00
64192;BME280;50497;50.720;-2.084;2023-04-27T07:07:52;102032.28;;;11.26;100.00
64192;BME280;50497;50.720;-2.084;2023-04-27T07:10:18;102041.50;;;11.16;100.00
64192;BME280;50497;50.720;-2.084;2023-04-27T07:12:44;102053.13;;;11.15;100.00
64192;BME280;50497;50.720;-2.084;2023-04-27T07:15:14;102053.44;;;11.36;100.00
64192;BME280;50497;50.720;-2.084;2023-04-27T07:17:51;102054.63;;;11.25;100.00
64192;BME280;50497;50.720;-2.084;2023-04-27T07:20:23;102081.66;;;11.18;100.00
64192;BME280;50497;50.720;-2.084;2023-04-27T07:22:50;102083.25;;;11.23;100.00
64192;BME280;50497;50.720;-2.084;2023-04-27T07:25:20;102080.44;;;10.97;100.00
64192;BME280;50497;50.720;-2.084;2023-04-27T07:27:50;102084.81;;;11.01;100.00
64192;BME280;50497;50.720;-2.084;2023-04-27T07:30:22;102076.84;;;10.98;100.00
64192;BME280;50497;50.720;-2.084;2023-04-27T07:32:49;102078.19;;;11.14;100.00
64192;BME280;50497;50.720;-2.084;2023-04-27T07:35:19;102083.47;;;11.17;100.00
64192;BME280;50497;50.720;-2.084;2023-04-27T07:37:45;102080.78;;;11.17;100.00
64192;BME280;50497;50.720;-2.084;2023-04-27T07:40:14;102080.69;;;11.50;100.00
64192;BME280;50497;50.720;-2.084;2023-04-27T07:42:44;102102.00;;;11.55;100.00
64192;BME280;50497;50.720;-2.084;2023-04-27T07:45:14;102131.28;;;11.62;100.00
64192;BME280;50497;50.720;-2.084;2023-04-27T07:47:43;102162.25;;;11.73;100.00
64192;BME280;50497;50.720;-2.084;2023-04-27T07:50:13;102189.31;;;11.63;100.00
64192;BME280;50497;50.720;-2.084;2023-04-27T07:52:45;102207.41;;;11.55;100.00
64192;BME280;50497;50.720;-2.084;2023-04-27T07:55:19;102221.88;;;11.50;100.00
64192;BME280;50497;50.720;-2.084;2023-04-27T07:57:54;102231.13;;;11.71;100.00
64192;BME280;50497;50.720;-2.084;2023-04-27T08:00:20;102245.50;;;12.01;100.00
64192;BME280;50497;50.720;-2.084;2023-04-27T08:02:50;102290.19;;;12.02;100.00
64192;BME280;50497;50.720;-2.084;2023-04-27T08:05:19;102343.69;;;12.07;100.00
64192;BME280;50497;50.720;-2.084;2023-04-27T08:07:47;102388.97;;;12.19;100.00
64192;BME280;50497;50.720;-2.084;2023-04-27T08:10:18;102415.34;;;12.01;100.00
64192;BME280;50497;50.720;-2.084;2023-04-27T08:12:46;102397.69;;;11.94;100.00
64192;BME280;50497;50.720;-2.084;2023-04-27T08:15:28;102417.72;;;12.14;100.00
64192;BME280;50497;50.720;-2.084;2023-04-27T08:18:02;102442.50;;;12.24;100.00
64192;BME280;50497;50.720;-2.084;2023-04-27T08:20:35;102451.59;;;12.18;100.00
64192;BME280;50497;50.720;-2.084;2023-04-27T08:23:08;102490.03;;;11.82;100.00
64192;BME280;50497;50.720;-2.084;2023-04-27T08:25:36;102483.25;;;11.68;100.00
64192;BME280;50497;50.720;-2.084;2023-04-27T08:28:03;102455.59;;;12.01;100.00
64192;BME280;50497;50.720;-2.084;2023-04-27T08:30:31;102458.88;;;11.77;100.00
64192;BME280;50497;50.720;-2.084;2023-04-27T08:32:56;102433.09;;;11.71;100.00
64192;BME280;50497;50.720;-2.084;2023-04-27T08:35:22;102425.06;;;12.07;100.00
64192;BME280;50497;50.720;-2.084;2023-04-27T08:37:48;102437.75;;;12.00;100.00
64192;BME280;50497;50.720;-2.084;2023-04-27T08:40:16;102430.03;;;11.87;100.00
64192;BME280;50497;50.720;-2.084;2023-04-27T08:42:59;102413.25;;;11.78;100.00
64192;BME280;50497;50.720;-2.084;2023-04-27T08:45:26;102341.63;;;11.49;100.00
64192;BME280;50497;50.720;-2.084;2023-04-27T08:47:56;102348.31;;;11.67;100.00
64192;BME280;50497;50.720;-2.084;2023-04-27T08:50:22;102372.88;;;11.84;100.00
64192;BME280;50497;50.720;-2.084;2023-04-27T08:52:49;102342.69;;;11.76;100.00
64192;BME280;50497;50.720;-2.084;2023-04-27T08:55:15;102330.47;;;11.66;100.00
64192;BME280;50497;50.720;-2.084;2023-04-27T08:57:55;102281.63;;;11.53;100.00
64192;BME280;50497;50.720;-2.084;2023-04-27T09:00:21;102237.41;;;11.37;100.00
64192;BME280;50497;50.720;-2.084;2023-04-27T09:02:48;102209.59;;;11.42;100.00
64192;BME280;50497;50.720;-2.084;2023-04-27T09:05:21;102169.81;;;11.25;100.00
64192;BME280;50497;50.720;-2.084;2023-04-27T09:08:03;102117.75;;;11.36;100.00
64192;BME280;50497;50.720;-2.084;2023-04-27T09:10:49;102090.06;;;11.35;100.00
64192;BME280;50497;50.720;-2.084;2023-04-27T09:13:15;102079.22;;;11.40;100.00
64192;BME280;50497;50.720;-2.084;2023-04-27T09:15:43;102046.69;;;11.22;100.00
64192;BME280;50497;50.720;-2.084;2023-04-27T09:18:19;102040.94;;;11.36;100.00
64192;BME280;50497;50.720;-2.084;2023-04-27T09:20:46;102000.13;;;11.26;100.00
64192;BME280;50497;50.720;-2.084;2023-04-27T09:23:44;102022.59;;;11.52;100.00
64192;BME280;50497;50.720;-2.084;2023-04-27T09:26:19;102000.72;;;11.36;100.00
64192;BME280;50497;50.720;-2.084;2023-04-27T09:28:48;102028.59;;;11.60;100.00
64192;BME280;50497;50.720;-2.084;2023-04-27T09:31:14;102044.50;;;11.35;100.00
64192;BME280;50497;50.720;-2.084;2023-04-27T09:33:45;102020.69;;;11.56;100.00
64192;BME280;50497;50.720;-2.084;2023-04-27T09:36:19;102025.31;;;11.51;100.00
64192;BME280;50497;50.720;-2.084;2023-04-27T09:38:51;101994.84;;;11.53;100.00
64192;BME280;50497;50.720;-2.084;2023-04-27T09:41:20;102006.59;;;11.77;100.00
64192;BME280;50497;50.720;-2.084;2023-04-27T09:43:50;101987.53;;;11.87;100.00
64192;BME280;50497;50.720;-2.084;2023-04-27T09:46:16;101960.75;;;11.85;100.00
64192;BME280;50497;50.720;-2.084;2023-04-27T09:48:41;102003.56;;;12.16;100.00
64192;BME280;50497;50.720;-2.084;2023-04-27T09:51:07;102043.41;;;12.29;100.00
64192;BME280;50497;50.720;-2.084;2023-04-27T09:53:37;102065.53;;;12.35;100.00
64192;BME280;50497;50.720;-2.084;2023-04-27T09:56:19;102091.03;;;12.22;100.00
64192;BME280;50497;50.720;-2.084;2023-04-27T09:59:17;102079.38;;;11.95;100.00
64192;BME280;50497;50.720;-2.084;2023-04-27T10:01:48;102135.78;;;12.20;100.00
64192;BME280;50497;50.720;-2.084;2023-04-27T10:09:45;102145.59;;;11.93;100.00
64192;BME280;50497;50.720;-2.084;2023-04-27T10:14:50;102126.56;;;12.02;100.00
64192;BME280;50497;50.720;-2.084;2023-04-27T10:17:45;102134.38;;;12.08;100.00
64192;BME280;50497;50.720;-2.084;2023-04-27T10:20:11;102133.25;;;12.17;100.00
64192;BME280;50497;50.720;-2.084;2023-04-27T10:22:48;102150.78;;;11.99;100.00
64192;BME280;50497;50.720;-2.084;2023-04-27T10:25:24;102114.28;;;11.93;100.00
64192;BME280;50497;50.720;-2.084;2023-04-27T10:27:58;102154.06;;;12.09;100.00
64192;BME280;50497;50.720;-2.084;2023-04-27T10:30:43;102145.56;;;11.94;100.00
64192;BME280;50497;50.720;-2.084;2023-04-27T10:33:22;102131.97;;;12.00;100.00
64192;BME280;50497;50.720;-2.084;2023-04-27T10:35:56;102151.00;;;11.90;100.00
64192;BME280;50497;50.720;-2.084;2023-04-27T10:38:33;102162.41;;;11.98;100.00
64192;BME280;50497;50.720;-2.084;2023-04-27T10:41:13;102161.13;;;12.11;100.00
64192;BME280;50497;50.720;-2.084;2023-04-27T10:43:42;102141.09;;;11.93;100.00
64192;BME280;50497;50.720;-2.084;2023-04-27T10:46:14;102176.25;;;12.14;100.00
64192;BME280;50497;50.720;-2.084;2023-04-27T10:48:54;102140.16;;;11.96;100.00
64192;BME280;50497;50.720;-2.084;2023-04-27T10:51:23;102120.53;;;11.94;100.00
64192;BME280;50497;50.720;-2.084;2023-04-27T10:54:05;102110.19;;;11.80;100.00
64192;BME280;50497;50.720;-2.084;2023-04-27T10:56:36;102085.72;;;11.92;100.00
64192;BME280;50497;50.720;-2.084;2023-04-27T10:59:03;102095.31;;;11.99;100.00
64192;BME280;50497;50.720;-2.084;2023-04-27T11:01:34;102089.13;;;11.97;100.00
64192;BME280;50497;50.720;-2.084;2023-04-27T11:04:08;102090.78;;;12.01;100.00
64192;BME280;50497;50.720;-2.084;2023-04-27T11:06:45;102064.56;;;11.81;100.00
64192;BME280;50497;50.720;-2.084;2023-04-27T11:09:31;102057.34;;;12.12;100.00
64192;BME280;50497;50.720;-2.084;2023-04-27T11:12:01;102049.81;;;11.96;100.00
64192;BME280;50497;50.720;-2.084;2023-04-27T11:14:32;102059.16;;;11.83;100.00
64192;BME280;50497;50.720;-2.084;2023-04-27T11:16:59;102055.00;;;12.02;100.00
64192;BME280;50497;50.720;-2.084;2023-04-27T11:19:29;102049.91;;;11.93;100.00
64192;BME280;50497;50.720;-2.084;2023-04-27T11:22:07;102048.53;;;12.08;100.00
64192;BME280;50497;50.720;-2.084;2023-04-27T11:24:49;102038.22;;;11.66;100.00
64192;BME280;50497;50.720;-2.084;2023-04-27T11:27:16;102022.47;;;11.83;100.00
64192;BME280;50497;50.720;-2.084;2023-04-27T11:29:42;102009.69;;;11.63;100.00
64192;BME280;50497;50.720;-2.084;2023-04-27T11:32:17;101987.69;;;11.82;100.00
64192;BME280;50497;50.720;-2.084;2023-04-27T11:34:51;101973.16;;;11.61;100.00
64192;BME280;50497;50.720;-2.084;2023-04-27T11:37:28;101949.72;;;11.68;100.00
64192;BME280;50497;50.720;-2.084;2023-04-27T11:40:02;101912.91;;;11.73;100.00
64192;BME280;50497;50.720;-2.084;2023-04-27T11:42:30;101870.72;;;11.78;100.00
64192;BME280;50497;50.720;-2.084;2023-04-27T11:45:01;101812.78;;;11.74;100.00
64192;BME280;50497;50.720;-2.084;2023-04-27T11:47:34;101774.31;;;11.50;100.00
64192;BME280;50497;50.720;-2.084;2023-04-27T11:50:02;101753.25;;;11.89;100.00
64192;BME280;50497;50.720;-2.084;2023-04-27T11:52:36;101726.00;;;12.01;100.00
64192;BME280;50497;50.720;-2.084;2023-04-27T11:55:04;101697.72;;;11.93;100.00
64192;BME280;50497;50.720;-2.084;2023-04-27T11:57:32;101684.94;;;11.99;100.00
64192;BME280;50497;50.720;-2.084;2023-04-27T12:00:08;101683.53;;;11.89;100.00
64192;BME280;50497;50.720;-2.084;2023-04-27T12:02:37;101667.31;;;11.43;100.00
64192;BME280;50497;50.720;-2.084;2023-04-27T12:05:04;101656.78;;;11.39;100.00
64192;BME280;50497;50.720;-2.084;2023-04-27T12:07:38;101647.59;;;11.46;100.00
64192;BME280;50497;50.720;-2.084;2023-04-27T12:10:11;101614.69;;;11.42;100.00
64192;BME280;50497;50.720;-2.084;2023-04-27T12:12:44;101607.25;;;11.25;100.00
64192;BME280;50497;50.720;-2.084;2023-04-27T12:15:11;101598.06;;;11.33;100.00
64192;BME280;50497;50.720;-2.084;2023-04-27T12:17:37;101550.53;;;11.38;100.00
64192;BME280;50497;50.720;-2.084;2023-04-27T12:20:08;101554.38;;;11.54;100.00
64192;BME280;50497;50.720;-2.084;2023-04-27T12:22:45;101554.84;;;11.42;100.00
64192;BME280;50497;50.720;-2.084;2023-04-27T12:25:12;101525.91;;;11.28;100.00
64192;BME280;50497;50.720;-2.084;2023-04-27T12:27:38;101520.16;;;11.39;100.00
64192;BME280;50497;50.720;-2.084;2023-04-27T12:30:07;101521.94;;;11.38;100.00
64192;BME280;50497;50.720;-2.084;2023-04-27T12:32:40;101519.41;;;11.34;100.00
64192;BME280;50497;50.720;-2.084;2023-04-27T12:35:07;101511.97;;;11.18;100.00
64192;BME280;50497;50.720;-2.084;2023-04-27T12:37:37;101521.41;;;11.28;100.00
64192;BME280;50497;50.720;-2.084;2023-04-27T12:40:07;101528.03;;;10.95;100.00
64192;BME280;50497;50.720;-2.084;2023-04-27T12:42:36;101538.53;;;11.01;100.00
64192;BME280;50497;50.720;-2.084;2023-04-27T12:45:11;101556.38;;;11.00;100.00
64192;BME280;50497;50.720;-2.084;2023-04-27T12:47:38;101584.84;;;11.03;100.00
64192;BME280;50497;50.720;-2.084;2023-04-27T12:50:17;101627.34;;;10.87;100.00
64192;BME280;50497;50.720;-2.084;2023-04-27T12:52:49;101654.88;;;10.90;100.00
64192;BME280;50497;50.720;-2.084;2023-04-27T12:55:19;101649.66;;;10.87;100.00
64192;BME280;50497;50.720;-2.084;2023-04-27T12:57:53;101637.97;;;10.90;100.00
64192;BME280;50497;50.720;-2.084;2023-04-27T13:00:23;101643.78;;;10.76;100.00